Timeline UpdatesTrip UpdatesNews PostsPvt PostsTravel TipsAdmin PostsConv PostsFollowed PostsChat RequestsBlog PostsPNR Posts

Disclaimer
Search
 
 
Thu Jul 24, 2014 01:38:20 ISTHomeTrainsΣChainsAtlasPNRForumGalleryNewsFAQTripsMembersLoginFeedback
No Recent News for this Train
Other Trains in the News **new
Latest...
.
Fri Dec 13, 2013 (03:40PM)
⇐ Return Journey: Train# 12833

12834/Howrah - Ahmedabad SF Express

Jul 14 (10:03PM)
Change Departure Station:
Change Arrival Station:
Post a Train Travel TipPost a Train Travel Tip **new
Post a Comment/Question/Picture/VideoPost a Comment/Question/Picture/Video
Pantry/Catering
✓ Pantry Car Avbl
✓ Catering Avbl
RSA - Rake Sharing
Rake/Coach Composition
LOCO(SRC WAP 4E)-SLR-GEN-S1-S2-S3-S4-S5-S6-S7-S8-S9-S10-S11-S12-PC-S13-B1-B2-A1-A2-GEN-SLR
Loco
Loco: SRC WAP 4 ... Entry# 289462
News    PNR    Forum    Time-Table    Availability    Fare Chart    Map    Arr/Dep History    Trips    Gallery    ΣChains    X/O    Timeline    
Travel Time: 16h 33m    28 halts    Distance: 878 km    Avg Speed: 53 km/hr
Type: SuperFast
Zone: SER/South Eastern
Departs @ 20:27 (Avg 53m late)
Platform# 1
SMTWTFS
Wardha Junction/WR 
Arrives @ 13:00 +1 night (Avg 52m late)
Platform# 6
SMTWTFS
Ahmedabad Junction/ADI 

28 halts. 128 intermediate Stations between Wardha Junction and Ahmedabad Junction

Show ALL intermediate Stations  Show Old Time-Table

#CodeStation NameX/OArrivesAvgDepartsAvgHaltPFDay#KmSpeedElevZoneAddress
1HWHKolkata Howrah Junction (23)  -23:55+14221-1210.26410mERHowrah 711101, West Bengal
2MCAMecheda (6)  00:50+1800:52+252m--2-1151.93510mSERdist - purba Medinipur, West Bengal
3PKUPanskura Junction (6)X  01:13+1501:15+182m--2-1139.5599mSERPanskura, West Bengal
4KGPKharagpur Junction (10)  02:00+1402:05+155m32-1095.17742mSERKharagpur, West Bengal
5TATATatanagar Junction (5)XO  03:50+2103:55+215m--2-960.168164mSER91-657-2423026, Jharkhand
6CKPChakradharpur (3)  04:50+2404:57+247m12-897.878235mSERChakradharpur (West Singhbhum), Jharkhand
7ROURourkela Junction (5)X  06:15+2706:30+2615m32-796.762198mSERRourkela, Odisha
8GPRaj Gangpur (3)  06:59+2607:00+291m12-766.972237mSERRaj Ganpur, Odisha
9BMBBamra (3)  07:29+2907:30+301m--2-732.358259mSERBamra PH : 06642-229268, Odisha
10JSGJharsuguda Junction (5)X  08:08+2608:10+292m--2-695.888236mSERJharsuguda, Odisha
11BRJNBrajrajnagar  08:18+3508:20+362m--2-684.167212mSECRBrajrajnagar, Odisha
12BPHBelpahar  08:28+3608:30+362m--2-675.285235mSECRBelpahar, Odisha
13RIGRaigarh (3)  09:06+4009:11+405m--2-624.293220mSECRRaigarh, Chhattisgarh
14KHSKharsia  09:33+5309:35+542m--2-590.291259mSECRNational Highway 200, Chhattisgarh
15BUABaradwarX  09:55+1:0109:57+1:012m--2-559.955256mSECRJanjgir-Champa, Chhattisgarh
16CPHChampa Junction (3)X  10:14+1:0110:19+595m32-544.472264mSECRNational Highway 200 (07819-245767), Chhattisgarh
17NIANailaX  10:28+1:0210:30+1:032m--2-533.675273mSECRJanjgir, Chhattisgarh
18AKTAkaltara (4)X  10:42+1:0310:44+1:042m--2-518.629284mSECRDist. Janjgir Champa, Chhattisgarh
19BSPBilaspur Junction (8)X  11:40+3511:55+4415m22-491.477271mSECRBilaspur, Chhattisgarh
20BYTBhatapara (4)X  12:31+4412:33+462m22-445.287270mSECRBanjari Road, Chhattisgarh
21TLDTilda (3)X  12:51+4612:53+492m--2-419.255291mSECRBanjari Rd, Chhattisgarh
22RRaipur Junction (6)X  13:35+4913:45+4810m52-381.080297mSECRRaipur, Chhattisgarh
23BPHBBhilai Power House (3)XO  14:06+1514:08+162m12-353.017312mSECRBhilai, Chhattisgarh
24DURGDurg Junction (6)X  14:40+3814:45+395m42-344.087299mSECRPh: 91-788-2322059, Chhattisgarh
25RJNRaj Nandgaon (3)  15:06+4515:08+452m--2-313.686313mSECRRajnandgaon, Chhattisgarh
26DGGDongargarh (2)  15:30+5115:32+522m12-282.076353mSECRDongargarh, Chhattisgarh
27AGNAmgaon (2)X  16:12+5616:14+572m--2-231.647317mSECRGondia, Maharashtra
28GGondia Junction (7)X  16:43+4916:48+485m22-208.892316mSECRGondia 441601, Maharashtra
29TROTirora (3)  17:07+5417:09+552m--2-179.572282mSECRDist Gondiya, Maharashtra
30TMRTumsar Road (3)  17:26+5317:28+532m--2-159.172267mSECRBhandara, Maharashtra
31BRDBhandara Road (2)X  17:43+5417:45+542m22-141.293266mSECRState Highway 252, Maharashtra
32KPKamptee (3)X  18:16+5518:18+562m--2-93.220290mSECRMH 441001, Maharashtra
33NGPNagpur Junction (8)X  19:00+4419:10+4810m32-78.920314mCRNagpur 440001, Maharashtra
34AJNIAjni (3)X  19:19+5319:20+541m32-75.971310mCRNagpur 440003, Maharashtra
35WR»Wardha Junction»X  20:24+5320:27+533m120.081289mCRWardha 442001, Maharashtra
36PLOPulgaon Junction (3)  20:49+5620:50+571m2229.567273mCRPulgaon, Maharashtra
37DMNDhamangaon (2)  21:08+5621:09+571m--249.567300mCRDhamangaon, Maharashtra
38CNDChandur (2)X  21:24+5821:25+1:021m--266.238331mCRAmravati Distt, Maharashtra
39BDBadnera Junction (4)X  22:10+5322:15+535m1294.986335mCRBadnera (Amravati) 444701, Maharashtra
40MZRMurtizapur (3)X  22:44+5922:45+1:031m--2136.774303mCRMurtajapur, Maharashtra
41AKAkola Junction (7)  23:15+1:0523:20+1:055m12173.993284mCRAkola-444001, Maharashtra
42SEGShegaon (2)  23:44+1:1023:45+1:111m22211.168281mCRShegaon 444203, Maharashtra
43JMJalamb Junction (3)  23:56+1:0923:58+1:102m12223.567259mCRJalamb, Maharashtra
44NNNandura  00:09+1:1000:10+1:131m13235.770267mCRNandura, Maharashtra
45MKUMalkapur (2)  00:34+1:1100:35+1:131m23263.650252mCRMalkapur, Maharashtra
46BSLBhusaval Junction (8)XO  01:35+1:0401:45+1:0710m43313.541208mCRBhusaval 425201, Maharashtra
47JLJalgaon Junction (4)X  02:20+5602:25+595m23337.651213mCRJalgaon 425001, Maharashtra
48DXGDharangaon (2)  03:00+1:0703:01+1:081m13367.351217mWRDharangaon, Maharashtra
49ANAmalner (1)  03:30+1:0503:33+1:043m13392.273188mWRAmalner, Maharashtra
50SNKSindkheda (1)  04:07+1:1004:08+1:121m13433.845178mWRState Highway 11, Maharashtra
51DDEDondaicha (2)X  04:34+1:0704:35+1:091m23453.149163mWRDondaicha, Maharashtra
52NDBNandurbar (3)  05:17+1:0405:25+1:028m13487.650203mWRNandurbar, Maharashtra
53NWUNavapur (2)  06:35+5006:37+532m--3545.555124mWRNavapur, Gujarat
54VYAVyara (2)  07:23+5107:25+522m13587.46090mWRVyara, Gujarat
55MIDMadhi (1)  07:40+5407:42+552m13602.35945mWRMadhi, Gujarat
56BIYBardoli (2)X  07:57+5707:59+582m--3617.23735mWRNear Bardoli Sugar Factory Bardoli, Gujarat
57UDNUdhna Junction (3)XO  08:43+4708:45+502m13644.41416mWRUdhna 394210, Gujarat
58STSurat (4)X  09:02+4609:12+4510m23648.48119mWRSurat 395001, Gujarat
59BHBharuch Junction (5)X  09:56+5709:58+582m33707.67419mWRBharuch, Gujarat
60BRCVadodara Junction (7)X  10:55+1:0811:00+1:095m33778.27236mWRVadodara 390005, Gujarat
61ANNDAnand Junction (6)  11:30+5411:32+552m23813.95344mWRAnand, Gujarat
62NDNadiad Junction (4)X  11:53+4711:55+472m--3832.45837mWRNadiad, Gujarat
63MANManinagar (2)X  12:39+2512:41+252m13874.81050mWRAhmadabad, Gujarat
64ADI•Ahmedabad Junction (12)•  13:00+52-63878.0-51mWRAhmedabad, Gujarat
Scroll to Top
Scroll to Bottom